Time;durP1;ratioP1;P1;durP2;ratioP2;P2;SDS_P1;SDS_P2;PMS_P1;PMS_P2;Temp;Humidity;BMP_temperature;BMP_pressure;BME280_temperature;BME280_humidity;BME280_pressure;Samples;Min_cycle;Max_cycle;Signal;HPM_P1;HPM_P2
2022/10/01 00:00:08;;;;;;;3.23;2.10;;;9.30;98.00;;;;;;5073500;28;20499;-68
2022/10/01 00:02:37;;;;;;;3.87;2.30;;;9.20;98.00;;;;;;5073590;28;20453;-68
2022/10/01 00:05:05;;;;;;;4.80;3.07;;;9.20;98.00;;;;;;5073386;28;20546;-68
2022/10/01 00:07:38;;;;;;;6.00;3.33;;;9.00;98.00;;;;;;5073321;28;20506;-68
2022/10/01 00:10:06;;;;;;;4.00;2.80;;;9.10;98.00;;;;;;5073792;28;20843;-68
2022/10/01 00:12:33;;;;;;;3.60;2.20;;;9.20;98.00;;;;;;5073380;28;20469;-68
2022/10/01 00:15:08;;;;;;;6.63;3.10;;;9.30;98.00;;;;;;5073481;28;20456;-68
2022/10/01 00:17:35;;;;;;;3.53;2.40;;;9.40;98.00;;;;;;5073295;28;20519;-68
2022/10/01 00:20:02;;;;;;;4.53;2.20;;;9.50;98.00;;;;;;5073505;28;20513;-68
2022/10/01 00:22:31;;;;;;;3.30;2.43;;;9.50;98.00;;;;;;5073388;28;20455;-68
2022/10/01 00:25:00;;;;;;;3.70;2.07;;;9.40;98.00;;;;;;5073280;28;20542;-68
2022/10/01 00:27:27;;;;;;;2.87;2.07;;;9.20;98.00;;;;;;5073291;28;20456;-68
2022/10/01 00:29:55;;;;;;;5.00;2.33;;;9.00;98.00;;;;;;5073349;28;20464;-68
2022/10/01 00:32:24;;;;;;;5.60;2.43;;;9.00;98.00;;;;;;5073295;28;20533;-68
2022/10/01 00:34:52;;;;;;;1.87;1.73;;;9.10;98.00;;;;;;5072976;28;20742;-67
2022/10/01 00:37:21;;;;;;;5.30;2.57;;;9.10;98.00;;;;;;5072913;28;20487;-68
2022/10/01 00:39:48;;;;;;;4.73;2.67;;;9.30;98.00;;;;;;5055227;28;20458;-68
2022/10/01 00:42:19;;;;;;;3.43;2.20;;;9.10;98.00;;;;;;5072833;28;20467;-68
2022/10/01 00:44:46;;;;;;;2.47;2.00;;;9.20;98.00;;;;;;5072855;28;20465;-68
2022/10/01 00:47:28;;;;;;;4.57;2.47;;;9.20;98.00;;;;;;5072751;28;20510;-68
2022/10/01 00:49:59;;;;;;;3.80;2.30;;;9.20;98.00;;;;;;5055189;28;20511;-68
2022/10/01 00:52:31;;;;;;;3.80;2.87;;;9.20;98.00;;;;;;5072451;28;20450;-68
2022/10/01 00:55:02;;;;;;;3.60;2.23;;;9.20;98.00;;;;;;5072110;28;20475;-68
2022/10/01 00:57:30;;;;;;;4.37;2.50;;;9.20;98.00;;;;;;5054699;28;20575;-68
2022/10/01 01:00:01;;;;;;;3.20;2.30;;;9.20;98.00;;;;;;5072203;28;20464;-68
2022/10/01 01:02:29;;;;;;;3.20;2.17;;;9.00;98.00;;;;;;5072366;28;20455;-68
2022/10/01 01:04:58;;;;;;;3.63;2.23;;;8.90;98.00;;;;;;5072213;28;21012;-68
2022/10/01 01:07:25;;;;;;;3.97;2.60;;;8.90;98.00;;;;;;5072247;28;20463;-68
2022/10/01 01:09:54;;;;;;;3.63;2.27;;;8.80;98.00;;;;;;5072072;28;20462;-67
2022/10/01 01:12:33;;;;;;;4.43;2.60;;;8.90;98.00;;;;;;5072249;28;20456;-67
2022/10/01 01:15:14;;;;;;;4.10;2.07;;;8.90;98.00;;;;;;5072308;28;20460;-68
2022/10/01 01:17:53;;;;;;;2.60;1.97;;;9.00;98.00;;;;;;5072185;28;20483;-68
2022/10/01 01:20:49;;;;;;;3.77;2.07;;;8.90;98.00;;;;;;5072302;28;20502;-68
2022/10/01 01:23:53;;;;;;;6.23;2.53;;;8.90;98.00;;;;;;5070987;28;20478;-68
2022/10/01 01:26:31;;;;;;;3.23;2.10;;;8.70;98.00;;;;;;5041106;28;20458;-68
2022/10/01 01:29:05;;;;;;;2.50;1.73;;;8.60;98.00;;;;;;5072297;28;20874;-68
2022/10/01 01:31:36;;;;;;;2.23;1.87;;;8.50;98.00;;;;;;5072077;28;20455;-68
2022/10/01 01:34:11;;;;;;;2.43;2.03;;;8.60;98.00;;;;;;5071979;28;20816;-68
2022/10/01 01:36:42;;;;;;;3.40;2.10;;;8.40;98.00;;;;;;5071663;28;20483;-68
2022/10/01 01:39:13;;;;;;;3.40;2.43;;;8.40;98.00;;;;;;5071495;28;20496;-67
2022/10/01 01:41:49;;;;;;;2.97;2.43;;;8.50;98.00;;;;;;5071782;28;20452;-68
2022/10/01 01:44:22;;;;;;;3.60;2.33;;;8.60;98.00;;;;;;5071574;28;20478;-67
2022/10/01 01:46:53;;;;;;;3.10;2.07;;;8.60;98.00;;;;;;5071631;28;20453;-68
2022/10/01 01:49:25;;;;;;;4.00;1.60;;;8.50;98.00;;;;;;5071495;28;20454;-68
2022/10/01 01:51:59;;;;;;;4.83;2.70;;;8.50;98.00;;;;;;5071492;28;20999;-68
2022/10/01 01:54:28;;;;;;;4.83;2.27;;;8.40;98.00;;;;;;5071536;28;20460;-68
2022/10/01 01:56:57;;;;;;;3.83;2.67;;;8.30;98.00;;;;;;5071557;28;20969;-68
2022/10/01 01:59:26;;;;;;;3.70;1.90;;;8.30;98.00;;;;;;5070995;28;20479;-68
2022/10/01 02:01:54;;;;;;;2.80;2.17;;;8.30;98.00;;;;;;5071531;28;20455;-68
2022/10/01 02:04:25;;;;;;;2.80;1.90;;;8.40;98.00;;;;;;5053475;28;20462;-68
2022/10/01 02:07:15;;;;;;;2.40;1.87;;;8.30;98.00;;;;;;5071081;28;20832;-68
2022/10/01 02:09:51;;;;;;;2.43;1.80;;;8.40;98.00;;;;;;5069108;28;20497;-68
2022/10/01 02:12:30;;;;;;;3.97;1.93;;;8.50;98.00;;;;;;5071531;28;20512;-68
2022/10/01 02:15:09;;;;;;;2.93;2.30;;;8.50;98.00;;;;;;5071203;28;20458;-68
2022/10/01 02:17:50;;;;;;;2.33;2.13;;;8.50;98.00;;;;;;5071344;28;20911;-68
2022/10/01 02:20:25;;;;;;;3.07;2.07;;;8.50;98.00;;;;;;5071330;28;20461;-68
2022/10/01 02:22:57;;;;;;;2.20;1.80;;;8.70;98.00;;;;;;5071495;28;20460;-68
2022/10/01 02:25:26;;;;;;;5.63;2.37;;;8.80;98.00;;;;;;5070259;28;20894;-68
2022/10/01 02:28:00;;;;;;;2.50;1.80;;;8.70;98.00;;;;;;5071081;28;20458;-68
2022/10/01 02:30:30;;;;;;;3.03;2.23;;;8.70;98.00;;;;;;5071235;28;20453;-68
2022/10/01 02:33:00;;;;;;;2.33;1.40;;;8.70;98.00;;;;;;5071081;28;20462;-68
2022/10/01 02:35:31;;;;;;;3.37;1.97;;;8.70;98.00;;;;;;5071128;28;20557;-67
2022/10/01 02:38:00;;;;;;;2.80;1.53;;;8.80;98.00;;;;;;5070804;28;21085;-68
2022/10/01 02:40:29;;;;;;;4.20;2.00;;;8.80;98.00;;;;;;5071065;28;20459;-68
2022/10/01 02:43:01;;;;;;;4.03;2.00;;;8.80;98.00;;;;;;5070859;28;20461;-68
2022/10/01 02:45:34;;;;;;;6.13;2.47;;;8.70;98.00;;;;;;5071335;28;20515;-69
2022/10/01 02:48:05;;;;;;;3.00;1.93;;;8.60;98.00;;;;;;5071228;28;20460;-68
2022/10/01 02:50:41;;;;;;;3.40;1.57;;;8.50;98.00;;;;;;5070881;28;20458;-68
2022/10/01 02:53:13;;;;;;;2.63;2.20;;;8.40;98.00;;;;;;5070780;28;20468;-68
2022/10/01 02:55:43;;;;;;;3.10;1.77;;;8.40;98.00;;;;;;5070753;28;20510;-68
2022/10/01 02:58:09;;;;;;;2.40;1.70;;;8.40;98.00;;;;;;5070664;28;20484;-68
2022/10/01 03:00:37;;;;;;;3.00;2.47;;;8.50;98.00;;;;;;5052964;28;20480;-68
2022/10/01 03:03:05;;;;;;;4.20;2.37;;;8.50;98.00;;;;;;5070887;28;20462;-69
2022/10/01 03:05:32;;;;;;;2.20;1.97;;;8.50;98.00;;;;;;5053089;28;20452;-68
2022/10/01 03:07:59;;;;;;;3.20;2.03;;;8.50;98.00;;;;;;5070566;28;20462;-68
2022/10/01 03:10:26;;;;;;;3.70;2.40;;;8.50;98.00;;;;;;5070679;28;20959;-68
2022/10/01 03:12:53;;;;;;;2.97;2.10;;;8.60;98.00;;;;;;5070868;28;20944;-68
2022/10/01 03:15:20;;;;;;;2.30;1.43;;;8.50;98.00;;;;;;5071052;28;20468;-68
2022/10/01 03:17:51;;;;;;;2.90;2.07;;;8.40;98.00;;;;;;5073712;28;20821;-68
2022/10/01 03:20:18;;;;;;;3.17;2.10;;;8.40;98.00;;;;;;5074826;28;20549;-68
2022/10/01 03:22:45;;;;;;;2.47;1.70;;;8.60;98.00;;;;;;5074627;28;20852;-68
2022/10/01 03:25:12;;;;;;;1.50;1.40;;;8.80;98.00;;;;;;5074638;28;20466;-68
2022/10/01 03:27:39;;;;;;;4.37;2.77;;;8.90;98.00;;;;;;5074397;28;20465;-68
2022/10/01 03:30:08;;;;;;;2.07;1.93;;;9.00;98.00;;;;;;5074267;28;20951;-68
2022/10/01 03:32:36;;;;;;;3.60;2.20;;;8.90;98.00;;;;;;5074199;28;20462;-68
2022/10/01 03:35:04;;;;;;;2.03;1.80;;;8.70;98.00;;;;;;5074163;28;21066;-69
2022/10/01 03:37:32;;;;;;;4.57;1.30;;;8.70;98.00;;;;;;5073987;28;20466;-68
2022/10/01 03:39:59;;;;;;;4.37;2.00;;;8.60;98.00;;;;;;5073695;28;20477;-68
2022/10/01 03:42:29;;;;;;;4.43;2.30;;;8.50;98.00;;;;;;5074027;28;20452;-68
2022/10/01 03:44:56;;;;;;;3.37;2.37;;;8.50;98.00;;;;;;5073978;28;20892;-68
2022/10/01 03:47:24;;;;;;;3.43;2.33;;;8.50;98.00;;;;;;5074091;28;20825;-68
2022/10/01 03:49:53;;;;;;;2.00;1.57;;;8.60;98.00;;;;;;5073644;28;20860;-68
2022/10/01 03:52:21;;;;;;;3.33;2.57;;;8.70;98.00;;;;;;5073501;28;20476;-68
2022/10/01 03:54:48;;;;;;;2.77;1.90;;;8.90;98.00;;;;;;5073673;28;20866;-68
2022/10/01 03:57:15;;;;;;;3.23;2.03;;;8.80;98.00;;;;;;5073621;28;20463;-68
2022/10/01 03:59:42;;;;;;;2.70;1.83;;;8.70;98.00;;;;;;5073456;28;21162;-68
2022/10/01 04:02:10;;;;;;;4.90;2.20;;;8.60;98.00;;;;;;5073488;28;20503;-68
2022/10/01 04:04:38;;;;;;;2.80;2.10;;;8.50;98.00;;;;;;5073470;28;20860;-68
2022/10/01 04:07:05;;;;;;;2.93;2.10;;;8.50;98.00;;;;;;5039211;28;20853;-68
2022/10/01 04:09:33;;;;;;;2.57;1.70;;;8.40;98.00;;;;;;5073503;28;20452;-69
2022/10/01 04:12:02;;;;;;;2.27;1.70;;;8.40;98.00;;;;;;5073512;28;20460;-68
2022/10/01 04:14:29;;;;;;;6.43;2.50;;;8.40;98.00;;;;;;5073201;28;20973;-69
2022/10/01 04:16:56;;;;;;;4.27;2.20;;;8.40;98.00;;;;;;5073368;28;20447;-68
2022/10/01 04:19:23;;;;;;;2.20;1.60;;;8.40;98.00;;;;;;5073261;28;20486;-68
2022/10/01 04:21:50;;;;;;;1.83;1.57;;;8.30;98.00;;;;;;5073608;28;20452;-68
2022/10/01 04:24:17;;;;;;;4.10;2.07;;;8.30;98.00;;;;;;5073470;28;20454;-68
2022/10/01 04:26:45;;;;;;;2.97;1.70;;;8.30;98.00;;;;;;5073301;28;20858;-68
2022/10/01 04:29:13;;;;;;;2.60;1.93;;;8.40;98.00;;;;;;5072423;28;20463;-68
2022/10/01 04:31:40;;;;;;;3.07;1.77;;;8.70;98.00;;;;;;5072958;28;20450;-68
2022/10/01 04:34:07;;;;;;;2.10;1.60;;;8.80;98.00;;;;;;5072912;28;20892;-68
2022/10/01 04:36:35;;;;;;;2.70;1.73;;;8.80;98.00;;;;;;5072989;28;20449;-68
2022/10/01 04:39:04;;;;;;;6.53;1.97;;;8.80;98.00;;;;;;5072722;28;20481;-68
2022/10/01 04:41:32;;;;;;;2.70;2.30;;;8.70;98.00;;;;;;5072942;28;20760;-68
2022/10/01 04:44:01;;;;;;;1.73;1.50;;;8.70;98.00;;;;;;5072696;28;20878;-68
2022/10/01 04:46:29;;;;;;;2.70;2.20;;;8.60;98.00;;;;;;5072741;28;20490;-68
2022/10/01 04:48:58;;;;;;;3.87;2.13;;;8.50;98.00;;;;;;5054956;28;20969;-68
2022/10/01 04:51:25;;;;;;;2.10;1.77;;;8.40;98.00;;;;;;5072695;28;20461;-68
2022/10/01 04:53:52;;;;;;;1.90;1.60;;;8.40;98.00;;;;;;5072758;28;20459;-68
2022/10/01 04:56:19;;;;;;;4.80;1.70;;;8.30;98.00;;;;;;5072719;28;20458;-69
2022/10/01 04:58:47;;;;;;;4.63;2.13;;;8.30;98.00;;;;;;5072184;28;20493;-69
2022/10/01 05:01:16;;;;;;;1.90;1.67;;;8.30;98.00;;;;;;5072370;28;20467;-68
2022/10/01 05:03:43;;;;;;;1.73;1.60;;;8.30;98.00;;;;;;5072323;28;20891;-68
2022/10/01 05:06:10;;;;;;;2.27;1.87;;;8.30;98.00;;;;;;5072653;28;20537;-68
2022/10/01 05:08:37;;;;;;;2.43;1.70;;;8.20;98.00;;;;;;5072520;28;20462;-68
2022/10/01 05:11:05;;;;;;;1.67;1.40;;;8.00;98.00;;;;;;5072209;28;20494;-68
2022/10/01 05:13:32;;;;;;;2.63;1.90;;;8.10;98.00;;;;;;5072185;28;20458;-68
2022/10/01 05:15:59;;;;;;;3.67;1.60;;;8.00;98.00;;;;;;5072043;28;20460;-69
2022/10/01 05:18:28;;;;;;;2.90;1.73;;;8.10;98.00;;;;;;5072040;28;20456;-68
2022/10/01 05:20:55;;;;;;;1.57;1.50;;;8.20;98.00;;;;;;5072177;28;21001;-68
2022/10/01 05:23:22;;;;;;;2.40;1.70;;;8.30;98.00;;;;;;5072315;28;20593;-68
2022/10/01 05:25:49;;;;;;;3.20;2.10;;;8.30;98.00;;;;;;5071951;28;20459;-68
2022/10/01 05:28:18;;;;;;;2.77;2.10;;;8.30;98.00;;;;;;5071881;28;20949;-68
2022/10/01 05:30:45;;;;;;;2.60;2.20;;;8.30;98.00;;;;;;5071987;28;20495;-68
2022/10/01 05:33:12;;;;;;;1.70;1.50;;;8.40;98.00;;;;;;5071928;28;20469;-68
2022/10/01 05:35:41;;;;;;;2.97;2.00;;;8.60;98.00;;;;;;5071922;28;20454;-68
2022/10/01 05:38:08;;;;;;;3.47;1.90;;;8.60;98.00;;;;;;5071560;28;20965;-68
2022/10/01 05:40:35;;;;;;;4.40;2.50;;;8.60;98.00;;;;;;5070669;28;20481;-68
2022/10/01 05:43:03;;;;;;;3.50;1.87;;;8.60;98.00;;;;;;5071576;28;20523;-68
2022/10/01 05:45:31;;;;;;;2.40;2.20;;;8.60;98.00;;;;;;5071606;28;20463;-68
2022/10/01 05:48:00;;;;;;;7.20;2.37;;;8.50;98.00;;;;;;5071458;28;20822;-68
2022/10/01 05:50:27;;;;;;;2.33;1.37;;;8.60;98.00;;;;;;5071732;28;20942;-65
2022/10/01 05:52:55;;;;;;;2.13;1.57;;;8.70;98.00;;;;;;5071790;28;20458;-65
2022/10/01 05:55:23;;;;;;;1.87;1.50;;;8.80;98.00;;;;;;5071094;28;20461;-66
2022/10/01 05:58:00;;;;;;;2.40;1.70;;;8.80;98.00;;;;;;5071346;28;20962;-66
2022/10/01 06:00:27;;;;;;;2.73;1.40;;;8.80;98.00;;;;;;5071274;28;20523;-65
2022/10/01 06:02:55;;;;;;;2.43;1.90;;;8.90;98.00;;;;;;5071505;28;20546;-66
2022/10/01 06:05:23;;;;;;;5.70;2.40;;;8.80;98.00;;;;;;5071616;28;20517;-66
2022/10/01 06:07:52;;;;;;;2.73;1.77;;;8.90;98.00;;;;;;5071396;28;20466;-66
2022/10/01 06:10:22;;;;;;;2.73;1.80;;;8.90;98.00;;;;;;5071410;28;20841;-65
2022/10/01 06:12:49;;;;;;;2.90;1.83;;;9.00;98.00;;;;;;5071589;28;20467;-65
2022/10/01 06:15:18;;;;;;;2.27;1.80;;;8.90;98.00;;;;;;5071112;28;20450;-65
2022/10/01 06:17:45;;;;;;;6.10;2.90;;;8.90;98.00;;;;;;5071222;28;20458;-66
2022/10/01 06:20:15;;;;;;;8.33;2.90;;;8.90;98.00;;;;;;5071233;28;20940;-66
2022/10/01 06:22:43;;;;;;;2.83;1.90;;;8.90;98.00;;;;;;5071724;28;20953;-66
2022/10/01 06:25:12;;;;;;;3.40;1.73;;;8.90;98.00;;;;;;5071193;28;20946;-65
2022/10/01 06:27:40;;;;;;;2.97;1.80;;;8.90;98.00;;;;;;5071235;28;20463;-66
2022/10/01 06:30:08;;;;;;;4.63;2.00;;;9.00;98.00;;;;;;5071012;28;20501;-65
2022/10/01 06:32:36;;;;;;;2.80;2.03;;;9.00;98.00;;;;;;5071276;28;21083;-65
2022/10/01 06:35:03;;;;;;;2.87;1.87;;;9.10;98.00;;;;;;5071069;28;20457;-65
2022/10/01 06:37:30;;;;;;;2.37;1.80;;;9.20;98.00;;;;;;5071145;28;20452;-65
2022/10/01 06:39:57;;;;;;;4.67;2.20;;;9.20;98.00;;;;;;5070811;28;20479;-65
2022/10/01 06:42:24;;;;;;;2.73;1.87;;;9.20;98.00;;;;;;5071037;28;20451;-65
2022/10/01 06:44:53;;;;;;;4.50;2.07;;;9.30;98.00;;;;;;5070960;28;20460;-66
2022/10/01 06:47:20;;;;;;;2.00;1.50;;;9.40;98.00;;;;;;5070918;28;20464;-65
2022/10/01 06:49:47;;;;;;;2.70;2.33;;;9.40;98.00;;;;;;5070905;28;20541;-65
2022/10/01 06:55:00;;;;;;;1.60;1.50;;;9.60;98.00;;;;;;5075119;28;20447;-65
2022/10/01 06:57:28;;;;;;;3.20;2.00;;;9.70;98.00;;;;;;5074863;28;20453;-65
2022/10/01 06:59:57;;;;;;;5.33;2.37;;;9.70;98.00;;;;;;5074282;28;20489;-65
2022/10/01 07:02:28;;;;;;;2.97;1.90;;;9.50;98.00;;;;;;5074394;28;20480;-66
2022/10/01 07:04:58;;;;;;;3.03;1.87;;;9.40;98.00;;;;;;5074860;28;20541;-65
2022/10/01 07:07:28;;;;;;;2.20;1.43;;;9.40;98.00;;;;;;5074514;28;20550;-65
2022/10/01 07:09:55;;;;;;;2.20;1.80;;;9.60;98.00;;;;;;5074227;28;20547;-65
2022/10/01 07:12:23;;;;;;;3.20;1.70;;;10.20;98.00;;;;;;5074799;28;20463;-66
2022/10/01 07:14:50;;;;;;;2.33;1.90;;;10.40;98.00;;;;;;5074356;28;20455;-67
2022/10/01 07:17:19;;;;;;;2.77;1.83;;;10.40;98.00;;;;;;5074719;28;20946;-66
2022/10/01 07:19:47;;;;;;;3.20;1.83;;;10.40;98.00;;;;;;5074311;28;20549;-66
2022/10/01 07:22:18;;;;;;;4.33;2.13;;;10.40;98.00;;;;;;5074502;28;20511;-66
2022/10/01 07:24:46;;;;;;;2.60;1.80;;;10.40;98.00;;;;;;5057342;28;20552;-66
2022/10/01 07:27:13;;;;;;;2.50;2.13;;;10.50;98.00;;;;;;5074250;28;20551;-66
2022/10/01 07:29:41;;;;;;;1.60;1.60;;;10.50;98.00;;;;;;5074209;28;20516;-65
2022/10/01 07:32:09;;;;;;;3.83;1.70;;;10.40;98.00;;;;;;5074068;28;20500;-66
2022/10/01 07:34:40;;;;;;;3.87;2.13;;;10.30;98.00;;;;;;5074029;28;20954;-66
2022/10/01 07:37:07;;;;;;;4.30;1.93;;;10.20;98.00;;;;;;5074113;28;20448;-66
2022/10/01 07:39:34;;;;;;;1.97;1.63;;;10.30;98.00;;;;;;5073795;28;20556;-67
2022/10/01 07:42:01;;;;;;;1.70;1.50;;;10.20;98.00;;;;;;5073915;28;20459;-67
2022/10/01 07:44:29;;;;;;;2.33;1.93;;;10.30;98.00;;;;;;5073786;28;20457;-65
2022/10/01 07:46:56;;;;;;;3.53;1.70;;;10.40;98.00;;;;;;5056457;28;20933;-65
2022/10/01 07:49:24;;;;;;;2.83;1.90;;;10.40;98.00;;;;;;5073750;28;20462;-66
2022/10/01 07:51:53;;;;;;;2.50;2.07;;;10.60;98.00;;;;;;5073965;28;20545;-66
2022/10/01 07:54:20;;;;;;;2.03;1.70;;;10.80;98.00;;;;;;5055857;28;20457;-66
2022/10/01 07:56:48;;;;;;;1.53;1.53;;;10.90;98.00;;;;;;5073781;28;20503;-66
2022/10/01 07:59:15;;;;;;;11.37;1.80;;;10.80;98.00;;;;;;5073376;28;20624;-67
2022/10/01 08:01:42;;;;;;;3.03;1.70;;;10.70;98.00;;;;;;5056066;28;20445;-66
2022/10/01 08:06:52;;;;;;;3.07;1.80;;;10.60;98.00;;;;;;5072554;28;20818;-67
2022/10/01 08:09:19;;;;;;;3.63;2.17;;;10.70;98.00;;;;;;5073393;28;20514;-66
2022/10/01 08:11:46;;;;;;;1.83;1.80;;;10.80;98.00;;;;;;5073515;28;20454;-65
2022/10/01 08:14:14;;;;;;;2.13;1.60;;;10.90;98.00;;;;;;5073289;28;20800;-66
2022/10/01 08:16:41;;;;;;;3.00;1.83;;;10.90;98.00;;;;;;5073201;28;20458;-65
2022/10/01 08:19:11;;;;;;;2.03;1.50;;;10.80;98.00;;;;;;5073126;28;20872;-66
2022/10/01 08:21:38;;;;;;;9.20;2.80;;;10.70;98.00;;;;;;5055623;28;20840;-67
2022/10/01 08:24:09;;;;;;;3.73;1.80;;;10.90;98.00;;;;;;5055731;28;20484;-66
2022/10/01 08:26:36;;;;;;;2.27;1.90;;;10.90;98.00;;;;;;5073359;28;20454;-66
2022/10/01 08:29:03;;;;;;;1.87;1.73;;;10.90;98.00;;;;;;5073186;28;20635;-66
2022/10/01 08:31:30;;;;;;;1.60;1.40;;;11.00;98.00;;;;;;5073157;28;20457;-66
2022/10/01 08:33:58;;;;;;;2.07;1.77;;;11.00;98.00;;;;;;5072828;28;20953;-66
2022/10/01 08:36:25;;;;;;;1.77;1.50;;;10.90;98.00;;;;;;5073103;28;20502;-66
2022/10/01 08:38:52;;;;;;;1.60;1.50;;;10.90;98.00;;;;;;5072489;28;20536;-67
2022/10/01 08:41:36;;;;;;;2.80;1.63;;;10.90;98.00;;;;;;5072722;28;20539;-66
2022/10/01 08:44:07;;;;;;;3.57;2.23;;;11.00;98.00;;;;;;5072815;28;21001;-65
2022/10/01 08:46:39;;;;;;;3.57;2.10;;;11.10;98.00;;;;;;5072883;28;20459;-67
2022/10/01 08:49:13;;;;;;;4.87;1.87;;;11.20;98.00;;;;;;5072718;28;20554;-66
2022/10/01 08:51:47;;;;;;;3.73;2.33;;;11.30;98.00;;;;;;5072723;28;20537;-65
2022/10/01 08:54:33;;;;;;;3.43;1.93;;;11.30;98.00;;;;;;5072545;28;20514;-66
2022/10/01 08:57:04;;;;;;;2.30;2.10;;;11.20;98.00;;;;;;5072552;28;20467;-66
2022/10/01 08:59:39;;;;;;;2.10;1.57;;;11.10;98.00;;;;;;5072313;28;20511;-66
2022/10/01 09:02:19;;;;;;;3.40;1.90;;;11.00;98.00;;;;;;5072423;28;20542;-66
2022/10/01 09:04:48;;;;;;;4.23;2.23;;;11.00;98.00;;;;;;5072366;28;20693;-67
2022/10/01 09:07:36;;;;;;;1.90;1.70;;;11.00;98.00;;;;;;5072169;28;20458;-67
2022/10/01 09:10:17;;;;;;;2.57;1.70;;;11.10;98.00;;;;;;5069570;28;20469;-66
2022/10/01 09:12:53;;;;;;;1.73;1.60;;;11.20;98.00;;;;;;5072258;28;20861;-66
2022/10/01 09:15:31;;;;;;;2.80;1.80;;;11.40;98.00;;;;;;5072265;28;20450;-67
2022/10/01 09:18:20;;;;;;;3.53;1.83;;;11.50;98.00;;;;;;5072291;28;20453;-66
2022/10/01 09:20:53;;;;;;;8.20;2.87;;;11.60;98.00;;;;;;5072134;28;20894;-67
2022/10/01 09:23:27;;;;;;;2.77;2.17;;;11.60;98.00;;;;;;5072040;28;21052;-65
2022/10/01 09:25:56;;;;;;;2.97;2.30;;;11.50;98.00;;;;;;5072287;28;20511;-66
2022/10/01 09:28:27;;;;;;;3.40;2.03;;;11.70;98.00;;;;;;5072052;28;20549;-66
2022/10/01 09:30:59;;;;;;;1.90;1.70;;;11.70;98.00;;;;;;5071984;28;20457;-67
2022/10/01 09:33:32;;;;;;;3.20;2.07;;;11.70;98.00;;;;;;5072073;28;20450;-66
2022/10/01 09:36:11;;;;;;;1.80;1.77;;;11.70;98.00;;;;;;5072036;28;20450;-66
2022/10/01 09:38:41;;;;;;;1.93;1.60;;;11.50;98.00;;;;;;5071838;28;20543;-63
2022/10/01 09:41:10;;;;;;;3.00;1.53;;;11.60;98.00;;;;;;5071568;28;20512;-66
2022/10/01 09:43:42;;;;;;;1.80;1.50;;;11.70;98.00;;;;;;5071713;28;20465;-66
2022/10/01 09:46:15;;;;;;;1.50;1.40;;;11.80;98.00;;;;;;5071598;28;20524;-66
2022/10/01 09:48:49;;;;;;;1.87;1.60;;;11.80;98.00;;;;;;5071588;28;20457;-67
2022/10/01 09:51:21;;;;;;;2.07;1.57;;;11.80;98.00;;;;;;5071694;28;20454;-66
2022/10/01 09:54:00;;;;;;;2.07;1.43;;;11.80;98.00;;;;;;5071349;28;20557;-65
2022/10/01 09:56:30;;;;;;;3.43;2.23;;;11.80;98.00;;;;;;5071371;28;20453;-67
2022/10/01 09:59:02;;;;;;;3.10;2.00;;;11.80;98.00;;;;;;5071206;28;20510;-66
2022/10/01 10:01:41;;;;;;;3.13;2.13;;;11.80;98.00;;;;;;5071286;28;20493;-66
2022/10/01 10:04:10;;;;;;;3.83;2.57;;;11.90;98.00;;;;;;5071270;28;20522;-66
2022/10/01 10:06:38;;;;;;;4.23;2.80;;;11.90;98.00;;;;;;5071505;28;20547;-66
2022/10/01 10:09:14;;;;;;;3.30;2.23;;;11.90;98.00;;;;;;5071305;28;20463;-67
2022/10/01 10:11:42;;;;;;;4.53;2.50;;;11.80;98.00;;;;;;5071226;28;20456;-66
2022/10/01 10:14:18;;;;;;;3.07;2.00;;;11.70;98.00;;;;;;5071229;28;20491;-66
2022/10/01 10:19:29;;;;;;;2.13;2.00;;;11.80;98.00;;;;;;5070835;28;20662;-66
2022/10/01 10:22:08;;;;;;;1.90;1.67;;;12.00;98.00;;;;;;5071156;28;20474;-67
2022/10/01 10:24:36;;;;;;;2.57;2.00;;;11.80;98.00;;;;;;5071505;28;20445;-67
2022/10/01 10:27:06;;;;;;;4.97;2.40;;;11.60;98.00;;;;;;5071010;28;20497;-67
2022/10/01 10:29:37;;;;;;;5.40;2.70;;;11.60;98.00;;;;;;5071511;28;20463;-66
2022/10/01 10:32:10;;;;;;;3.27;2.30;;;11.70;98.00;;;;;;5053657;28;20458;-67
2022/10/01 10:34:38;;;;;;;1.90;1.70;;;11.70;98.00;;;;;;5070994;28;20463;-67
2022/10/01 10:37:12;;;;;;;1.90;1.77;;;11.80;98.00;;;;;;5070972;28;20550;-66
2022/10/01 10:39:43;;;;;;;3.30;1.93;;;11.80;98.00;;;;;;5070912;28;20457;-66
2022/10/01 10:42:15;;;;;;;2.00;1.80;;;11.90;98.00;;;;;;5070633;28;20486;-67
2022/10/01 10:44:48;;;;;;;2.80;1.90;;;11.90;98.00;;;;;;5070943;28;20551;-66
2022/10/01 10:47:18;;;;;;;2.00;1.70;;;11.80;98.00;;;;;;5070900;28;20455;-67
2022/10/01 10:49:47;;;;;;;3.70;2.00;;;11.70;98.00;;;;;;5070892;28;20476;-67
2022/10/01 10:52:22;;;;;;;1.80;1.67;;;11.70;98.00;;;;;;5070925;28;20463;-67
2022/10/01 10:54:50;;;;;;;2.27;1.77;;;11.70;98.00;;;;;;5070820;28;20458;-66
2022/10/01 10:57:21;;;;;;;1.30;1.20;;;11.80;98.00;;;;;;5070852;28;21025;-66
2022/10/01 10:59:58;;;;;;;1.50;1.30;;;11.80;98.00;;;;;;5070673;28;20503;-67
2022/10/01 11:02:28;;;;;;;1.70;1.40;;;11.90;98.00;;;;;;5070717;28;20467;-67
2022/10/01 11:04:56;;;;;;;1.90;1.30;;;12.00;98.00;;;;;;5070953;28;20953;-66
2022/10/01 11:07:27;;;;;;;1.60;1.30;;;12.10;98.00;;;;;;5070815;28;20490;-66
2022/10/01 11:10:11;;;;;;;1.33;1.13;;;12.10;98.00;;;;;;5070676;28;20460;-66
2022/10/01 11:12:55;;;;;;;1.50;1.27;;;12.20;98.00;;;;;;5071010;28;20485;-66
2022/10/01 11:15:44;;;;;;;2.10;1.33;;;12.20;98.00;;;;;;5070703;28;20968;-66
2022/10/01 11:18:37;;;;;;;2.17;1.23;;;12.30;98.00;;;;;;5070759;28;20617;-67
2022/10/01 11:21:17;;;;;;;1.37;1.23;;;12.40;98.00;;;;;;5070584;28;20486;-67
2022/10/01 11:24:13;;;;;;;1.53;1.23;;;12.40;98.00;;;;;;5070762;28;20458;-67
2022/10/01 11:26:48;;;;;;;1.20;1.17;;;12.20;98.00;;;;;;5070862;28;20507;-66
2022/10/01 11:29:28;;;;;;;2.33;1.47;;;12.30;98.00;;;;;;5070633;28;20610;-66
2022/10/01 11:32:07;;;;;;;1.20;1.10;;;12.20;98.00;;;;;;5070648;28;20823;-66
2022/10/01 11:34:57;;;;;;;1.30;1.20;;;12.20;98.00;;;;;;5070497;28;20458;-67
2022/10/01 11:37:44;;;;;;;1.40;1.07;;;12.30;98.00;;;;;;5070935;28;20883;-66
2022/10/01 11:40:17;;;;;;;1.20;1.20;;;12.40;98.00;;;;;;5073716;28;20455;-67
2022/10/01 11:42:49;;;;;;;1.53;1.20;;;12.30;98.00;;;;;;5074063;28;20485;-66
2022/10/01 11:45:22;;;;;;;1.33;1.10;;;12.30;98.00;;;;;;5073809;28;20942;-66
2022/10/01 11:47:54;;;;;;;1.60;1.23;;;12.30;98.00;;;;;;5073838;28;20976;-66
2022/10/01 11:50:26;;;;;;;1.23;1.20;;;12.30;98.00;;;;;;5073871;28;20820;-66
2022/10/01 11:53:00;;;;;;;1.20;1.00;;;12.30;98.00;;;;;;5073750;28;20506;-66
2022/10/01 12:01:11;;;;;;;1.20;1.20;;;12.30;98.00;;;;;;5073604;28;20519;-67
2022/10/01 12:03:55;;;;;;;1.20;1.10;;;12.20;98.00;;;;;;5073496;28;20498;-66
2022/10/01 12:06:27;;;;;;;1.70;1.30;;;12.20;98.00;;;;;;5073655;28;20476;-66
2022/10/01 12:09:05;;;;;;;1.40;1.10;;;12.30;98.00;;;;;;5056111;28;20886;-68
2022/10/01 12:11:39;;;;;;;1.30;1.30;;;12.30;98.00;;;;;;5073376;28;20869;-68
2022/10/01 12:14:11;;;;;;;1.50;1.10;;;12.40;98.00;;;;;;5073671;28;20815;-69
2022/10/01 12:16:45;;;;;;;1.60;1.20;;;12.40;98.00;;;;;;5073340;28;20463;-68
2022/10/01 12:19:20;;;;;;;1.40;1.20;;;12.40;98.00;;;;;;5073232;28;20456;-67
2022/10/01 12:21:50;;;;;;;1.50;1.10;;;12.30;98.00;;;;;;5073408;28;20819;-68
2022/10/01 12:24:21;;;;;;;1.27;1.13;;;12.30;98.00;;;;;;5073644;28;20513;-67
2022/10/01 12:27:00;;;;;;;1.60;1.40;;;12.40;98.00;;;;;;5073439;28;20462;-67
2022/10/01 12:29:38;;;;;;;1.93;1.30;;;12.40;98.00;;;;;;5073313;28;20466;-67
2022/10/01 12:32:14;;;;;;;1.20;1.10;;;12.40;98.00;;;;;;5073331;28;20455;-68
2022/10/01 12:34:51;;;;;;;1.63;1.30;;;12.50;98.00;;;;;;5073223;28;20459;-67
2022/10/01 12:37:34;;;;;;;1.87;1.77;;;12.50;98.00;;;;;;5073026;28;20457;-68
2022/10/01 12:40:15;;;;;;;1.30;1.30;;;12.60;98.00;;;;;;5072778;28;20506;-67
2022/10/01 12:43:05;;;;;;;1.30;1.10;;;12.60;98.00;;;;;;5072787;28;20594;-68
2022/10/01 12:45:42;;;;;;;2.57;1.20;;;12.80;98.00;;;;;;5055975;28;20460;-69
2022/10/01 12:48:16;;;;;;;1.30;1.20;;;12.80;98.00;;;;;;5039435;28;21020;-67
2022/10/01 12:50:54;;;;;;;1.43;1.30;;;12.90;98.00;;;;;;5054690;28;20462;-67
2022/10/01 12:53:30;;;;;;;1.30;1.30;;;13.00;98.00;;;;;;5071786;28;20518;-68
2022/10/01 12:56:06;;;;;;;1.20;1.10;;;13.10;98.00;;;;;;5072550;28;20470;-68
2022/10/01 12:58:54;;;;;;;2.33;1.30;;;13.40;98.00;;;;;;5045014;28;20468;-67
2022/10/01 13:01:36;;;;;;;1.40;1.10;;;13.50;98.00;;;;;;5069944;28;20574;-68
2022/10/01 13:04:26;;;;;;;1.57;1.30;;;13.70;98.00;;;;;;5069172;28;20884;-68
2022/10/01 13:07:15;;;;;;;1.20;1.20;;;13.70;98.00;;;;;;5069553;28;20885;-68
2022/10/01 13:09:51;;;;;;;1.30;1.30;;;13.90;98.00;;;;;;5063248;28;20559;-68
2022/10/01 13:12:37;;;;;;;1.20;1.13;;;14.10;98.00;;;;;;5069159;28;20495;-68
2022/10/01 13:15:05;;;;;;;1.30;1.10;;;14.30;98.00;;;;;;5069555;28;20879;-68
2022/10/01 13:17:41;;;;;;;1.20;1.10;;;14.40;98.00;;;;;;5052459;28;20460;-68
2022/10/01 13:20:18;;;;;;;1.30;1.10;;;14.40;98.00;;;;;;5069447;28;20540;-67
2022/10/01 13:22:58;;;;;;;1.20;1.13;;;14.50;98.00;;;;;;5068308;28;20490;-67
2022/10/01 13:25:32;;;;;;;1.63;1.10;;;15.10;98.00;;;;;;5069247;28;20461;-67
2022/10/01 13:28:09;;;;;;;1.83;1.20;;;15.60;98.00;;;;;;5070311;28;20463;-68